Terminal Aerodrome Forecast
Issued by NWS Pueblo, CO

Home | Current Version | Previous Version | Text Only | Print | Product List | Glossary On
Versions: 1 2 3 4 5 6 7 8 9 10 11 12 13 14 15 16 17 18 19 20 21 22 23 24 25 26 27 28 29 30 31 32 33
000
FTUS45 KPUB 230102 AAA
TAFALS
TAF AMD
KALS 230102Z 2301/2324 24011KT P6SM FEW110 BKN200
     FM230200 18011KT P6SM BKN200
     FM230600 18011KT P6SM BKN140
     FM231300 20014KT P6SM SCT200
     FM231700 21020G30KT P6SM SCT110 SCT200
     FM232000 21020G30KT P6SM VCSH SCT050 BKN100=

USA.gov is the U.S. government's official web portal to all federal, state and local government web resources and services.